Time;durP1;ratioP1;P1;durP2;ratioP2;P2;SDS_P1;SDS_P2;PMS_P1;PMS_P2;Temp;Humidity;BMP_temperature;BMP_pressure;BME280_temperature;BME280_humidity;BME280_pressure;Samples;Min_cycle;Max_cycle;Signal;HPM_P1;HPM_P2
2022/08/27 00:01:15;;;;;;;6.30;4.97;;;19.80;99.90;;;;;;4946682;29;20094;-69
2022/08/27 00:03:43;;;;;;;12.52;5.97;;;19.80;99.90;;;;;;4946203;29;20035;-69
2022/08/27 00:06:13;;;;;;;9.30;5.50;;;19.70;99.90;;;;;;4947442;29;20028;-69
2022/08/27 00:08:41;;;;;;;11.63;6.70;;;19.80;99.90;;;;;;4940235;29;20036;-68
2022/08/27 00:11:07;;;;;;;10.10;5.95;;;19.80;99.90;;;;;;4927216;29;20023;-68
2022/08/27 00:13:34;;;;;;;8.32;5.57;;;19.70;99.90;;;;;;4928191;29;20035;-70
2022/08/27 00:16:00;;;;;;;8.63;5.65;;;19.70;99.90;;;;;;4937344;29;20063;-68
2022/08/27 00:18:26;;;;;;;13.07;6.07;;;19.70;99.90;;;;;;4946243;29;20020;-69
2022/08/27 00:20:51;;;;;;;10.00;6.63;;;19.70;99.90;;;;;;4934197;29;20024;-69
2022/08/27 00:23:17;;;;;;;8.73;5.50;;;19.60;99.90;;;;;;4927567;29;20243;-68
2022/08/27 00:25:44;;;;;;;9.30;5.80;;;19.60;99.90;;;;;;4928099;29;20042;-68
2022/08/27 00:28:09;;;;;;;12.27;5.90;;;19.60;99.90;;;;;;4928324;29;20023;-68
2022/08/27 00:30:36;;;;;;;9.97;6.13;;;19.60;99.90;;;;;;4927430;29;20065;-68
2022/08/27 00:33:03;;;;;;;7.57;5.72;;;19.60;99.90;;;;;;4926259;29;20023;-69
2022/08/27 00:35:29;;;;;;;9.02;6.38;;;19.60;99.90;;;;;;4927600;29;20087;-69
2022/08/27 00:37:55;;;;;;;11.25;5.80;;;19.60;99.90;;;;;;4927892;29;20028;-68
2022/08/27 00:40:21;;;;;;;11.17;6.30;;;19.60;99.90;;;;;;4928031;29;20056;-69
2022/08/27 00:42:47;;;;;;;9.67;6.27;;;19.60;99.90;;;;;;4926558;29;20028;-69
2022/08/27 00:45:20;;;;;;;8.40;6.03;;;19.60;99.90;;;;;;4931308;29;20295;-69
2022/08/27 00:47:53;;;;;;;12.48;6.93;;;19.60;99.90;;;;;;4945864;29;20046;-69
2022/08/27 00:50:41;;;;;;;9.60;6.72;;;19.60;99.90;;;;;;4915203;29;20051;-68
2022/08/27 00:53:16;;;;;;;8.88;6.25;;;19.50;99.90;;;;;;4919583;29;20028;-69
2022/08/27 00:55:46;;;;;;;10.95;7.00;;;19.50;99.90;;;;;;4926674;29;20036;-70
2022/08/27 00:58:25;;;;;;;9.55;6.60;;;19.50;99.90;;;;;;4926762;29;20039;-68
2022/08/27 01:00:50;;;;;;;9.50;7.50;;;19.50;99.90;;;;;;4926843;29;20036;-70
2022/08/27 01:03:16;;;;;;;12.03;7.03;;;19.60;99.90;;;;;;4925684;29;20059;-68
2022/08/27 01:05:42;;;;;;;9.70;7.03;;;19.60;99.90;;;;;;4927125;29;20039;-69
2022/08/27 01:08:12;;;;;;;10.85;6.30;;;19.60;99.90;;;;;;4927429;29;20051;-69
2022/08/27 01:10:38;;;;;;;10.38;6.55;;;19.50;99.90;;;;;;4907963;29;20040;-68
2022/08/27 01:13:07;;;;;;;13.43;7.13;;;19.50;99.90;;;;;;4922799;29;20212;-69
2022/08/27 01:15:33;;;;;;;10.35;6.63;;;19.50;99.90;;;;;;4933491;28;20098;-69
2022/08/27 01:17:59;;;;;;;9.87;7.03;;;19.50;99.90;;;;;;4925975;29;20032;-69
2022/08/27 01:20:30;;;;;;;10.23;7.32;;;19.50;99.90;;;;;;4925887;29;20031;-69
2022/08/27 01:23:26;;;;;;;11.57;6.57;;;19.50;99.90;;;;;;4926358;29;20095;-71
2022/08/27 01:25:52;;;;;;;9.23;7.25;;;19.50;99.90;;;;;;4926171;29;20067;-71
2022/08/27 01:28:18;;;;;;;12.10;7.50;;;19.40;99.90;;;;;;4925969;29;20043;-71
2022/08/27 01:30:44;;;;;;;9.73;7.13;;;19.40;99.90;;;;;;4926232;29;20350;-71
2022/08/27 01:33:15;;;;;;;12.63;6.77;;;19.40;99.90;;;;;;4926882;29;20024;-71
2022/08/27 01:35:46;;;;;;;14.43;7.78;;;19.40;99.90;;;;;;4924979;29;20034;-70
2022/08/27 01:38:12;;;;;;;10.45;6.95;;;19.40;99.90;;;;;;4925810;29;20023;-71
2022/08/27 01:40:38;;;;;;;11.00;7.13;;;19.40;99.90;;;;;;4925813;29;20091;-72
2022/08/27 01:43:03;;;;;;;12.38;7.95;;;19.40;99.90;;;;;;4946046;29;20306;-71
2022/08/27 01:45:33;;;;;;;11.40;7.47;;;19.40;99.90;;;;;;4948850;29;20059;-70
2022/08/27 01:47:59;;;;;;;10.18;7.32;;;19.40;99.90;;;;;;4931654;29;20044;-71
2022/08/27 01:50:37;;;;;;;9.70;6.95;;;19.40;99.90;;;;;;4946443;29;20024;-71
2022/08/27 01:53:11;;;;;;;14.32;7.75;;;19.40;99.90;;;;;;4946968;29;20031;-70
2022/08/27 01:55:37;;;;;;;11.50;7.35;;;19.40;99.90;;;;;;4932441;29;20242;-71
2022/08/27 01:58:03;;;;;;;13.27;7.77;;;19.40;99.90;;;;;;4948519;29;20023;-70
2022/08/27 02:00:32;;;;;;;9.50;7.70;;;19.40;99.90;;;;;;4948466;29;20043;-70
2022/08/27 02:02:58;;;;;;;12.95;8.13;;;19.40;99.90;;;;;;4915300;29;20275;-70
2022/08/27 02:05:24;;;;;;;11.47;7.73;;;19.40;99.90;;;;;;4944563;29;20035;-70
2022/08/27 02:07:50;;;;;;;10.82;7.60;;;19.50;99.90;;;;;;4945129;29;20032;-72
2022/08/27 02:10:20;;;;;;;11.20;7.32;;;19.40;99.90;;;;;;4946128;29;20023;-71
2022/08/27 02:12:46;;;;;;;9.85;7.55;;;19.40;99.90;;;;;;4944375;29;20042;-71
2022/08/27 02:15:12;;;;;;;13.77;8.07;;;19.40;99.90;;;;;;4945618;29;20027;-70
2022/08/27 02:17:38;;;;;;;12.88;8.45;;;19.40;99.90;;;;;;4942896;29;20135;-71
2022/08/27 02:20:08;;;;;;;12.90;8.50;;;19.40;99.90;;;;;;4945225;29;20027;-69
2022/08/27 02:22:34;;;;;;;13.23;8.18;;;19.40;99.90;;;;;;4928570;29;20027;-71
2022/08/27 02:25:01;;;;;;;14.90;8.82;;;19.40;99.90;;;;;;4928185;29;20031;-68
2022/08/27 02:27:26;;;;;;;10.82;7.75;;;19.30;99.90;;;;;;4926818;29;20067;-68
2022/08/27 02:29:54;;;;;;;14.07;8.33;;;19.30;99.90;;;;;;4925928;29;20326;-69
2022/08/27 02:32:20;;;;;;;16.40;8.40;;;19.30;99.90;;;;;;4925773;29;20039;-72
2022/08/27 02:34:46;;;;;;;14.45;8.48;;;19.30;99.90;;;;;;4925822;29;20083;-68
2022/08/27 02:37:12;;;;;;;11.37;8.90;;;19.30;99.90;;;;;;4925845;29;20040;-68
2022/08/27 02:39:37;;;;;;;15.30;9.10;;;19.20;99.90;;;;;;4925933;29;20263;-68
2022/08/27 02:42:03;;;;;;;15.13;8.40;;;19.20;99.90;;;;;;4931873;29;20054;-69
2022/08/27 02:44:30;;;;;;;12.07;8.30;;;19.20;99.90;;;;;;4943084;29;20024;-70
2022/08/27 02:46:57;;;;;;;15.73;9.38;;;19.20;99.90;;;;;;4924608;29;20112;-68
2022/08/27 02:49:23;;;;;;;11.65;8.82;;;19.20;99.90;;;;;;4925282;29;20021;-68
2022/08/27 02:51:53;;;;;;;13.07;8.43;;;19.10;99.90;;;;;;4925871;29;20047;-68
2022/08/27 02:54:19;;;;;;;17.17;8.50;;;19.10;99.90;;;;;;4925569;29;20327;-69
2022/08/27 02:56:44;;;;;;;12.03;8.63;;;19.10;99.90;;;;;;4925683;29;20039;-69
2022/08/27 02:59:10;;;;;;;11.53;7.67;;;19.10;99.90;;;;;;4925652;29;20040;-69
2022/08/27 03:01:36;;;;;;;13.60;8.00;;;19.10;99.90;;;;;;4925436;29;20032;-69
2022/08/27 03:04:02;;;;;;;9.80;7.87;;;19.10;99.90;;;;;;4925307;29;20080;-69
2022/08/27 03:06:29;;;;;;;15.07;8.82;;;19.00;99.90;;;;;;4925862;29;20028;-69
2022/08/27 03:08:55;;;;;;;12.82;8.13;;;19.00;99.90;;;;;;4925676;29;20055;-70
2022/08/27 03:11:22;;;;;;;13.03;8.07;;;19.00;99.90;;;;;;4909688;29;20016;-69
2022/08/27 03:13:48;;;;;;;10.20;8.15;;;19.00;99.90;;;;;;4943322;29;20030;-69
2022/08/27 03:16:14;;;;;;;11.73;8.53;;;19.10;99.90;;;;;;4926417;29;20028;-70
2022/08/27 03:18:40;;;;;;;14.60;8.80;;;19.00;99.90;;;;;;4944263;29;20110;-70
2022/08/27 03:21:06;;;;;;;19.53;10.20;;;19.00;99.90;;;;;;4943617;29;20039;-69
2022/08/27 03:23:33;;;;;;;13.10;9.65;;;19.00;99.90;;;;;;4943254;29;20386;-69
2022/08/27 03:26:02;;;;;;;14.70;9.70;;;19.00;99.90;;;;;;4943475;29;20075;-69
2022/08/27 03:28:33;;;;;;;13.38;9.38;;;19.00;99.90;;;;;;4944477;29;20019;-69
2022/08/27 03:31:01;;;;;;;17.08;10.07;;;19.00;99.90;;;;;;4944732;29;20322;-69
2022/08/27 03:33:33;;;;;;;13.38;10.10;;;19.00;99.90;;;;;;4927405;29;20024;-69
2022/08/27 03:35:59;;;;;;;12.68;9.57;;;19.00;99.90;;;;;;4943392;29;20052;-69
2022/08/27 03:38:25;;;;;;;15.47;9.53;;;19.00;99.90;;;;;;4944353;29;20024;-70
2022/08/27 03:40:51;;;;;;;13.80;10.05;;;19.00;99.90;;;;;;4944786;29;20031;-69
2022/08/27 03:43:18;;;;;;;16.43;10.37;;;19.00;99.90;;;;;;4943082;29;20034;-69
2022/08/27 03:45:44;;;;;;;16.92;12.32;;;19.00;99.90;;;;;;4944306;29;20027;-69
2022/08/27 03:48:11;;;;;;;17.13;12.25;;;19.00;99.90;;;;;;4944039;29;20028;-69
2022/08/27 03:50:38;;;;;;;17.25;12.30;;;19.10;99.90;;;;;;4943192;29;20095;-70
2022/08/27 03:53:04;;;;;;;15.63;11.32;;;19.00;99.90;;;;;;4944008;29;20039;-69
2022/08/27 03:55:29;;;;;;;19.10;12.77;;;19.00;99.90;;;;;;4944200;29;20024;-69
2022/08/27 03:57:55;;;;;;;15.93;11.10;;;19.00;99.90;;;;;;4944208;29;20031;-69
2022/08/27 04:00:23;;;;;;;17.73;12.60;;;19.00;99.90;;;;;;4947214;29;20108;-69
2022/08/27 04:02:49;;;;;;;21.60;13.88;;;19.00;99.90;;;;;;4947164;29;20255;-70
2022/08/27 04:05:15;;;;;;;24.52;14.65;;;19.00;99.90;;;;;;4946508;29;20027;-71
2022/08/27 04:07:41;;;;;;;19.60;13.30;;;19.00;99.90;;;;;;4947611;29;20085;-69
2022/08/27 04:10:08;;;;;;;18.43;13.17;;;18.90;99.90;;;;;;4946519;29;20091;-69
2022/08/27 04:12:34;;;;;;;19.45;12.75;;;18.90;99.90;;;;;;4946637;29;20267;-72
2022/08/27 04:15:00;;;;;;;20.35;12.95;;;18.90;99.90;;;;;;4946394;29;20554;-69
2022/08/27 04:17:26;;;;;;;20.67;13.87;;;18.90;99.90;;;;;;4946139;29;20057;-70
2022/08/27 04:19:52;;;;;;;22.03;14.23;;;18.90;99.90;;;;;;4946317;29;20039;-70
2022/08/27 04:22:18;;;;;;;20.90;13.63;;;18.90;99.90;;;;;;4930558;29;20054;-70
2022/08/27 04:24:43;;;;;;;21.02;13.73;;;18.90;99.90;;;;;;4945938;29;20293;-70
2022/08/27 04:27:10;;;;;;;21.73;13.33;;;18.90;99.90;;;;;;4946184;29;20280;-70
2022/08/27 04:29:36;;;;;;;19.50;13.27;;;18.90;99.90;;;;;;4947498;29;20216;-70
2022/08/27 04:32:02;;;;;;;18.17;11.90;;;18.90;99.90;;;;;;4946946;29;20075;-70
2022/08/27 04:34:28;;;;;;;24.98;14.15;;;18.90;99.90;;;;;;4946892;29;20058;-69
2022/08/27 04:36:55;;;;;;;21.35;13.95;;;18.90;99.90;;;;;;4945831;29;20242;-70
2022/08/27 04:39:21;;;;;;;;;;;18.80;99.90;;;;;;4946407;29;20098;-69
2022/08/27 04:41:51;;;;;;;22.27;12.88;;;18.80;99.90;;;;;;4947062;29;19910;-70
2022/08/27 04:44:17;;;;;;;20.80;11.90;;;18.80;99.90;;;;;;4913656;29;20338;-70
2022/08/27 04:46:43;;;;;;;18.75;11.93;;;18.80;99.90;;;;;;4930291;29;20023;-69
2022/08/27 04:49:12;;;;;;;16.52;10.85;;;18.70;99.90;;;;;;4947502;29;20036;-69
2022/08/27 04:51:38;;;;;;;20.05;10.95;;;18.80;99.90;;;;;;4946269;29;20015;-69
2022/08/27 04:54:05;;;;;;;16.98;12.10;;;18.80;99.90;;;;;;4945572;29;20039;-69
2022/08/27 04:56:31;;;;;;;17.75;11.68;;;18.80;99.90;;;;;;4946801;29;20032;-69
2022/08/27 04:58:57;;;;;;;18.42;11.60;;;18.90;99.90;;;;;;4945512;29;20035;-70
2022/08/27 05:01:26;;;;;;;19.83;11.90;;;18.90;99.90;;;;;;4946709;29;20087;-70
2022/08/27 05:03:53;;;;;;;17.77;11.55;;;18.90;99.90;;;;;;4946139;29;20042;-72
2022/08/27 05:06:18;;;;;;;18.15;11.88;;;18.90;99.90;;;;;;4946618;29;20047;-70
2022/08/27 05:08:44;;;;;;;16.23;11.20;;;19.00;99.90;;;;;;4946430;29;20027;-71
2022/08/27 05:11:13;;;;;;;16.00;11.03;;;19.00;99.90;;;;;;4945421;29;20036;-70
2022/08/27 05:13:40;;;;;;;17.13;12.02;;;19.00;99.90;;;;;;4944998;29;20047;-70
2022/08/27 05:16:08;;;;;;;16.77;11.13;;;19.10;99.90;;;;;;4946319;29;20204;-70
2022/08/27 05:18:34;;;;;;;15.73;12.07;;;19.10;99.90;;;;;;4946028;29;20020;-70
2022/08/27 05:21:00;;;;;;;17.67;12.27;;;19.10;99.90;;;;;;4946301;29;20289;-69
2022/08/27 05:23:29;;;;;;;17.20;11.90;;;19.10;99.90;;;;;;4946048;29;20099;-70
2022/08/27 05:25:55;;;;;;;17.17;10.93;;;19.20;99.90;;;;;;4946156;29;20099;-69
2022/08/27 05:28:22;;;;;;;21.00;10.65;;;19.20;99.90;;;;;;4944969;29;20035;-70
2022/08/27 05:30:49;;;;;;;;;;;19.20;99.90;;;;;;4946520;29;20095;-70
2022/08/27 05:33:17;;;;;;;16.17;10.90;;;19.20;99.90;;;;;;4945626;29;20257;-70
2022/08/27 05:35:46;;;;;;;16.27;11.50;;;19.30;99.90;;;;;;4944863;29;20230;-70
2022/08/27 05:38:12;;;;;;;16.33;10.40;;;19.20;99.90;;;;;;4945722;29;20043;-70
2022/08/27 05:40:39;;;;;;;15.67;10.37;;;19.20;99.90;;;;;;4945938;29;20023;-70
2022/08/27 05:43:05;;;;;;;15.55;10.38;;;19.20;99.90;;;;;;4945793;29;20023;-70
2022/08/27 05:45:32;;;;;;;16.42;9.93;;;19.20;99.90;;;;;;4944428;29;20231;-70
2022/08/27 05:47:58;;;;;;;;;;;19.30;99.90;;;;;;4946161;29;20075;-70
2022/08/27 05:50:27;;;;;;;17.05;10.13;;;19.30;99.90;;;;;;4945669;29;19915;-70
2022/08/27 05:52:52;;;;;;;16.40;10.05;;;19.30;99.90;;;;;;4945573;29;20069;-70
2022/08/27 05:55:19;;;;;;;14.63;9.40;;;19.30;99.90;;;;;;4944459;29;20330;-69
2022/08/27 05:57:44;;;;;;;14.80;10.43;;;19.30;99.90;;;;;;4944526;29;20024;-70
2022/08/27 06:02:55;;;;;;;13.68;9.50;;;19.40;99.90;;;;;;4944360;29;20084;-72
2022/08/27 06:05:21;;;;;;;18.07;11.47;;;19.40;99.90;;;;;;4944375;29;20412;-72
2022/08/27 06:07:47;;;;;;;14.87;9.97;;;19.40;99.90;;;;;;4944303;29;20027;-72
2022/08/27 06:10:13;;;;;;;15.33;9.43;;;19.40;99.90;;;;;;4945316;29;20034;-72
2022/08/27 06:12:38;;;;;;;15.40;10.27;;;19.50;99.90;;;;;;4945242;29;20031;-72
2022/08/27 06:15:05;;;;;;;15.13;10.73;;;19.50;99.90;;;;;;4944815;29;20275;-72
2022/08/27 06:17:30;;;;;;;18.55;10.52;;;19.50;99.90;;;;;;4943332;29;20043;-73
2022/08/27 06:19:56;;;;;;;15.33;10.73;;;19.50;99.90;;;;;;4945198;29;20031;-72
2022/08/27 06:22:22;;;;;;;16.20;10.43;;;19.50;99.90;;;;;;4944786;29;20349;-74
2022/08/27 06:24:48;;;;;;;17.40;10.73;;;19.60;99.90;;;;;;4943798;29;20034;-74
2022/08/27 06:27:15;;;;;;;16.43;11.00;;;19.50;99.90;;;;;;4929323;29;20096;-72
2022/08/27 06:29:41;;;;;;;17.20;10.35;;;19.50;99.90;;;;;;4921562;29;20020;-73
2022/08/27 06:32:08;;;;;;;14.75;10.23;;;19.50;99.90;;;;;;4937346;29;20076;-72
2022/08/27 06:34:34;;;;;;;14.07;11.13;;;19.50;99.90;;;;;;4906849;29;20035;-72
2022/08/27 06:37:00;;;;;;;15.68;10.93;;;19.60;99.90;;;;;;4906900;29;20034;-73
2022/08/27 06:39:25;;;;;;;14.37;10.80;;;19.60;99.90;;;;;;4907047;29;20239;-72
2022/08/27 06:41:51;;;;;;;17.87;10.10;;;19.70;99.90;;;;;;4906982;29;20052;-73
2022/08/27 06:44:17;;;;;;;13.05;10.25;;;19.70;99.90;;;;;;4906548;29;20029;-73
2022/08/27 06:46:43;;;;;;;18.83;12.30;;;19.80;99.90;;;;;;4921229;29;20040;-73
2022/08/27 06:49:13;;;;;;;18.92;12.23;;;19.90;99.90;;;;;;4940079;29;20283;-73
2022/08/27 06:51:39;;;;;;;16.75;11.32;;;19.90;99.90;;;;;;4928422;29;20046;-73
2022/08/27 06:54:08;;;;;;;15.63;10.95;;;19.90;99.90;;;;;;4927739;29;20077;-74
2022/08/27 06:56:34;;;;;;;17.60;11.85;;;20.00;99.90;;;;;;4943707;29;20212;-73
2022/08/27 06:59:02;;;;;;;15.18;11.30;;;20.00;99.90;;;;;;4943385;29;20106;-73
2022/08/27 07:01:34;;;;;;;19.55;11.57;;;20.00;99.90;;;;;;4943457;29;20035;-72
2022/08/27 07:04:04;;;;;;;14.13;10.82;;;20.10;99.90;;;;;;4943700;29;20434;-73
2022/08/27 07:06:30;;;;;;;17.23;11.82;;;20.10;99.90;;;;;;4943626;29;20024;-73
2022/08/27 07:08:56;;;;;;;16.42;11.73;;;20.20;99.90;;;;;;4943514;29;20389;-73
2022/08/27 07:11:22;;;;;;;20.58;12.82;;;20.20;99.90;;;;;;4943646;29;20028;-74
2022/08/27 07:13:48;;;;;;;19.40;12.38;;;20.20;99.90;;;;;;4943389;29;20019;-73
2022/08/27 07:16:17;;;;;;;16.48;11.80;;;20.30;99.90;;;;;;4944498;29;20341;-72
2022/08/27 07:18:43;;;;;;;22.25;12.55;;;20.30;99.90;;;;;;4903966;29;20327;-74
2022/08/27 07:21:09;;;;;;;20.55;13.25;;;20.40;99.90;;;;;;4940421;29;20024;-72
2022/08/27 07:23:36;;;;;;;21.47;12.87;;;20.50;99.90;;;;;;4925320;29;20331;-72
2022/08/27 07:26:08;;;;;;;;;;;20.50;99.90;;;;;;4924824;29;20072;-73
2022/08/27 07:28:34;;;;;;;21.77;13.30;;;20.50;99.90;;;;;;4925527;29;19961;-73
2022/08/27 07:31:00;;;;;;;22.08;13.98;;;20.50;99.90;;;;;;4925506;29;20542;-73
2022/08/27 07:33:26;;;;;;;19.10;13.07;;;20.60;99.90;;;;;;4925410;29;20047;-72
2022/08/27 07:35:52;;;;;;;20.47;14.97;;;20.60;99.90;;;;;;4944028;29;20065;-73
2022/08/27 07:38:18;;;;;;;22.02;14.68;;;20.60;99.90;;;;;;4927972;29;20031;-72
2022/08/27 07:40:44;;;;;;;23.50;15.05;;;20.60;99.90;;;;;;4929191;29;20036;-74
2022/08/27 07:45:57;;;;;;;21.27;14.00;;;20.60;99.90;;;;;;4941227;29;20042;-73
2022/08/27 07:48:23;;;;;;;26.80;15.75;;;20.70;99.90;;;;;;4938262;29;20066;-72
2022/08/27 07:50:49;;;;;;;24.70;16.15;;;20.70;99.90;;;;;;4911794;29;20061;-74
2022/08/27 07:53:15;;;;;;;23.17;16.50;;;20.70;99.90;;;;;;4943340;29;20096;-72
2022/08/27 07:55:41;;;;;;;23.80;15.63;;;20.70;99.90;;;;;;4929063;29;20334;-73
2022/08/27 07:58:06;;;;;;;25.50;16.90;;;20.80;99.90;;;;;;4927762;29;20056;-72
2022/08/27 08:00:33;;;;;;;22.60;16.33;;;20.80;99.90;;;;;;4943579;29;20032;-73
2022/08/27 08:02:59;;;;;;;23.60;16.50;;;20.80;99.90;;;;;;4927138;29;20051;-73
2022/08/27 08:05:24;;;;;;;23.97;15.83;;;20.90;99.90;;;;;;4927534;29;20095;-73
2022/08/27 08:07:50;;;;;;;29.20;17.13;;;20.90;99.90;;;;;;4927392;29;20602;-73
2022/08/27 08:10:16;;;;;;;20.90;15.27;;;20.90;99.90;;;;;;4928633;29;20357;-73
2022/08/27 08:12:42;;;;;;;22.67;15.88;;;21.00;99.90;;;;;;4911457;29;20043;-72
2022/08/27 08:15:09;;;;;;;25.17;15.80;;;21.00;99.90;;;;;;4942967;29;20032;-72
2022/08/27 08:17:35;;;;;;;23.83;15.05;;;21.00;99.90;;;;;;4927271;29;20056;-73
2022/08/27 08:20:02;;;;;;;22.25;14.60;;;21.00;99.90;;;;;;4927442;29;20219;-72
2022/08/27 08:22:28;;;;;;;21.27;15.52;;;21.00;99.90;;;;;;4928382;29;20127;-72
2022/08/27 08:24:54;;;;;;;30.80;16.57;;;21.00;99.90;;;;;;4928008;29;20331;-73
2022/08/27 08:27:20;;;;;;;30.73;15.20;;;20.90;99.90;;;;;;4943096;29;20223;-72
2022/08/27 08:29:47;;;;;;;26.37;15.43;;;21.00;99.90;;;;;;4927112;29;20040;-72
2022/08/27 08:32:12;;;;;;;22.20;14.48;;;21.00;99.90;;;;;;4926870;29;20047;-72
2022/08/27 08:34:38;;;;;;;23.60;14.97;;;21.00;99.90;;;;;;4942631;29;20028;-72
2022/08/27 08:37:04;;;;;;;19.30;14.90;;;21.00;99.90;;;;;;4927988;29;20038;-72
2022/08/27 08:39:31;;;;;;;20.42;14.65;;;21.00;99.90;;;;;;4942909;29;20056;-73
2022/08/27 08:42:03;;;;;;;22.87;14.47;;;21.10;99.90;;;;;;4928263;29;20072;-72
2022/08/27 08:44:45;;;;;;;22.42;13.07;;;21.10;99.90;;;;;;4926629;29;20197;-72
2022/08/27 08:47:30;;;;;;;20.25;12.88;;;21.10;99.90;;;;;;4927106;29;20039;-72
2022/08/27 08:50:08;;;;;;;20.35;13.70;;;21.10;99.90;;;;;;4900553;29;20115;-73
2022/08/27 08:52:33;;;;;;;17.48;13.55;;;21.10;99.90;;;;;;4930275;29;20027;-72
2022/08/27 08:55:24;;;;;;;21.53;13.90;;;21.10;99.90;;;;;;4930504;29;20028;-72
2022/08/27 08:58:34;;;;;;;22.35;14.05;;;21.10;99.90;;;;;;4941079;29;20044;-73
2022/08/27 09:01:02;;;;;;;17.45;12.45;;;21.20;99.90;;;;;;4940632;29;20028;-72
2022/08/27 09:03:28;;;;;;;18.38;12.48;;;21.30;99.90;;;;;;4946728;29;20258;-73
2022/08/27 09:06:29;;;;;;;16.60;12.13;;;21.40;99.90;;;;;;4929627;29;20035;-72
2022/08/27 09:08:55;;;;;;;17.67;11.80;;;21.50;99.90;;;;;;4923364;29;20051;-73
2022/08/27 09:11:53;;;;;;;16.43;11.33;;;21.60;99.90;;;;;;4929266;29;20020;-72
2022/08/27 09:14:37;;;;;;;13.85;10.38;;;21.60;99.90;;;;;;4928917;29;20032;-73
2022/08/27 09:17:03;;;;;;;14.30;10.07;;;21.70;99.90;;;;;;4926298;29;20042;-73
2022/08/27 09:19:29;;;;;;;11.77;9.48;;;21.80;99.90;;;;;;4940283;29;20023;-73
2022/08/27 09:22:15;;;;;;;9.20;7.57;;;21.80;99.90;;;;;;4945323;29;20050;-72
2022/08/27 09:25:19;;;;;;;12.18;8.07;;;21.90;99.90;;;;;;4944895;29;20036;-73
2022/08/27 09:27:45;;;;;;;12.70;7.07;;;21.90;99.90;;;;;;4938088;29;20087;-73
2022/08/27 09:30:23;;;;;;;8.73;6.28;;;21.90;99.90;;;;;;4911628;29;20032;-74
2022/08/27 09:33:02;;;;;;;6.88;5.63;;;21.90;99.90;;;;;;4927367;29;20039;-73
2022/08/27 09:35:44;;;;;;;6.13;5.40;;;22.00;99.90;;;;;;4926681;29;20087;-72
2022/08/27 09:38:12;;;;;;;9.90;6.18;;;22.10;99.90;;;;;;4925795;29;20031;-73
2022/08/27 09:40:42;;;;;;;10.30;6.43;;;22.10;99.90;;;;;;4910348;29;20027;-73
2022/08/27 09:43:23;;;;;;;7.82;5.78;;;22.10;99.90;;;;;;4925754;29;20055;-72
2022/08/27 09:45:55;;;;;;;6.40;5.10;;;22.10;99.90;;;;;;4925727;29;20032;-74
2022/08/27 09:48:33;;;;;;;7.22;5.65;;;22.10;99.90;;;;;;4926186;29;20032;-73
2022/08/27 09:51:04;;;;;;;6.72;5.50;;;22.00;99.90;;;;;;4925810;29;20044;-74
2022/08/27 09:53:46;;;;;;;9.52;5.57;;;22.00;99.90;;;;;;4910427;29;20232;-73
2022/08/27 09:56:30;;;;;;;9.70;6.07;;;22.00;99.90;;;;;;4925057;29;20319;-73
2022/08/27 09:59:06;;;;;;;6.43;5.07;;;21.90;99.90;;;;;;4926475;29;20250;-73
2022/08/27 10:01:35;;;;;;;8.82;5.70;;;21.90;99.90;;;;;;4895492;29;20039;-74
2022/08/27 10:04:12;;;;;;;7.72;5.85;;;21.90;99.90;;;;;;4925191;29;20427;-72
2022/08/27 10:06:47;;;;;;;6.40;5.43;;;21.90;99.90;;;;;;4925244;29;20040;-72
2022/08/27 10:09:34;;;;;;;5.93;5.30;;;21.90;99.90;;;;;;4926327;29;20271;-72
2022/08/27 10:12:16;;;;;;;5.47;4.90;;;22.00;99.90;;;;;;4922105;29;20674;-75
2022/08/27 10:14:47;;;;;;;10.75;5.68;;;22.00;99.90;;;;;;4918416;29;20047;-73
2022/08/27 10:17:41;;;;;;;7.47;5.70;;;22.00;99.90;;;;;;4895006;29;20331;-72
2022/08/27 10:20:30;;;;;;;9.20;5.72;;;22.00;99.90;;;;;;4925961;29;20243;-72
2022/08/27 10:23:15;;;;;;;10.02;6.38;;;21.90;99.90;;;;;;4921999;29;20036;-72
2022/08/27 10:25:50;;;;;;;7.15;5.68;;;21.80;99.90;;;;;;4923592;29;20060;-72
2022/08/27 10:28:28;;;;;;;6.95;5.72;;;21.70;99.90;;;;;;4923252;29;20024;-73
2022/08/27 10:31:12;;;;;;;7.68;5.50;;;21.70;99.90;;;;;;4917246;29;20255;-73
2022/08/27 10:34:10;;;;;;;10.05;5.97;;;21.70;99.90;;;;;;4923528;29;20047;-73
2022/08/27 10:37:16;;;;;;;8.95;6.00;;;21.70;99.90;;;;;;4926067;29;20399;-72
2022/08/27 10:39:47;;;;;;;8.80;7.07;;;21.60;99.90;;;;;;4917672;29;20032;-72
2022/08/27 10:42:44;;;;;;;8.02;5.85;;;21.60;99.90;;;;;;4924156;29;20024;-74
2022/08/27 10:45:41;;;;;;;11.55;7.32;;;21.60;99.90;;;;;;4924349;29;20307;-72
2022/08/27 10:48:16;;;;;;;8.30;7.10;;;21.60;99.90;;;;;;4923158;29;20024;-73
2022/08/27 10:50:53;;;;;;;7.60;6.70;;;21.60;99.90;;;;;;4922899;29;20091;-72
2022/08/27 10:53:33;;;;;;;;;;;21.60;99.90;;;;;;4892564;29;20235;-72
2022/08/27 10:56:43;;;;;;;7.95;5.85;;;21.70;99.90;;;;;;4923404;29;19915;-73
2022/08/27 10:59:38;;;;;;;9.07;6.53;;;21.80;99.90;;;;;;4899563;29;20063;-73
2022/08/27 11:02:35;;;;;;;9.70;6.40;;;22.00;99.90;;;;;;4922099;29;20032;-72
2022/08/27 11:05:22;;;;;;;8.00;6.55;;;22.10;99.90;;;;;;4922550;29;20038;-72
2022/08/27 11:07:55;;;;;;;9.45;6.85;;;22.20;99.90;;;;;;4909924;29;20024;-72
2022/08/27 11:10:30;;;;;;;7.35;5.78;;;22.30;99.90;;;;;;4926695;29;20059;-72
2022/08/27 11:13:06;;;;;;;9.15;5.65;;;22.40;99.90;;;;;;4893852;29;20036;-74
2022/08/27 11:15:35;;;;;;;7.65;5.75;;;22.50;99.90;;;;;;4896176;29;20152;-72
2022/08/27 11:18:28;;;;;;;7.78;5.88;;;22.60;99.90;;;;;;4909294;29;20443;-72
2022/08/27 11:21:01;;;;;;;8.23;5.97;;;22.60;99.90;;;;;;4925968;29;20039;-72
2022/08/27 11:23:50;;;;;;;9.13;6.10;;;22.80;99.90;;;;;;4895628;29;20028;-72
2022/08/27 11:26:16;;;;;;;6.43;5.50;;;22.80;99.90;;;;;;4925272;29;20037;-73
2022/08/27 11:28:51;;;;;;;10.37;7.10;;;22.90;99.90;;;;;;4925662;29;20504;-73
2022/08/27 11:32:09;;;;;;;10.18;6.65;;;23.00;99.90;;;;;;4911588;29;20020;-72
2022/08/27 11:34:50;;;;;;;7.93;6.18;;;23.10;99.90;;;;;;4909464;29;20033;-72
2022/08/27 11:37:55;;;;;;;9.77;6.78;;;23.20;99.90;;;;;;4926378;29;20339;-73
2022/08/27 11:41:27;;;;;;;9.85;5.82;;;23.30;99.90;;;;;;4914974;29;20088;-72
2022/08/27 11:43:52;;;;;;;9.35;6.35;;;23.40;99.90;;;;;;4924535;29;20349;-73
2022/08/27 11:46:24;;;;;;;7.03;6.30;;;23.40;99.90;;;;;;4926021;29;20028;-73
2022/08/27 11:49:01;;;;;;;20.88;7.35;;;23.30;99.90;;;;;;4888454;29;20020;-73
2022/08/27 11:51:36;;;;;;;;;;;23.30;99.90;;;;;;4927583;29;20084;-72
2022/08/27 11:54:09;;;;;;;7.55;5.07;;;23.30;99.90;;;;;;4926375;29;19945;-73
2022/08/27 11:56:40;;;;;;;6.97;5.70;;;23.30;99.90;;;;;;4926081;29;20146;-72
2022/08/27 11:59:25;;;;;;;7.82;5.28;;;23.30;99.90;;;;;;4925597;29;20099;-73
2022/08/27 12:01:52;;;;;;;7.28;5.15;;;23.40;99.90;;;;;;4926499;29;20036;-72
2022/08/27 12:04:31;;;;;;;6.75;4.60;;;23.50;99.90;;;;;;4926521;29;20031;-73
2022/08/27 12:07:12;;;;;;;8.02;5.35;;;23.70;99.90;;;;;;4920044;29;20020;-73
2022/08/27 12:10:01;;;;;;;4.75;4.25;;;24.00;99.90;;;;;;4925976;29;20423;-74
2022/08/27 12:12:57;;;;;;;5.43;4.28;;;24.50;99.90;;;;;;4901844;29;20064;-72
2022/08/27 12:15:59;;;;;;;6.03;4.60;;;24.80;99.90;;;;;;4941661;29;20227;-72
2022/08/27 12:18:37;;;;;;;7.03;4.53;;;25.10;99.90;;;;;;4929443;29;20035;-73
2022/08/27 12:21:14;;;;;;;5.75;4.88;;;25.30;99.90;;;;;;4941485;29;20032;-73
2022/08/27 12:23:45;;;;;;;;;;;25.60;99.90;;;;;;4927327;29;20305;-73
2022/08/27 12:26:38;;;;;;;7.75;4.30;;;26.10;99.90;;;;;;4928183;29;20167;-73
2022/08/27 12:29:23;;;;;;;6.32;4.55;;;26.80;99.90;;;;;;4911447;29;20055;-72
2022/08/27 12:31:49;;;;;;;6.05;3.80;;;27.90;99.90;;;;;;4928209;29;20020;-72
2022/08/27 12:34:23;;;;;;;4.68;3.42;;;28.90;99.90;;;;;;4895810;29;20096;-74
2022/08/27 12:36:49;;;;;;;6.18;5.20;;;29.50;99.90;;;;;;4896243;29;20399;-72
2022/08/27 12:39:28;;;;;;;6.63;4.20;;;29.60;99.90;;;;;;4926775;29;20036;-74
2022/08/27 12:41:55;;;;;;;5.35;3.55;;;30.50;99.90;;;;;;4912488;29;20024;-73
2022/08/27 12:44:30;;;;;;;4.60;3.95;;;31.00;99.90;;;;;;4911185;29;20062;-73
2022/08/27 12:47:04;;;;;;;4.22;3.50;;;31.40;99.90;;;;;;4911354;29;20084;-73
2022/08/27 12:49:40;;;;;;;6.32;3.63;;;30.80;99.90;;;;;;4918723;29;20023;-72
2022/08/27 12:52:54;;;;;;;3.92;3.58;;;30.00;99.90;;;;;;4930891;29;20168;-72
2022/08/27 12:55:53;;;;;;;4.55;3.25;;;29.30;99.90;;;;;;4927128;29;20335;-74
2022/08/27 12:58:40;;;;;;;6.13;3.65;;;30.00;99.90;;;;;;4935532;29;20289;-72
2022/08/27 13:01:52;;;;;;;4.68;3.35;;;31.80;99.90;;;;;;4945630;29;20035;-73
2022/08/27 13:04:24;;;;;;;3.72;3.38;;;33.70;99.90;;;;;;4945086;29;20039;-74
2022/08/27 13:06:50;;;;;;;3.33;2.83;;;34.00;99.90;;;;;;4898723;29;20024;-74